sensor_id;sensor_type;location;lat;lon;timestamp;P1;durP1;ratioP1;P2;durP2;ratioP2
71462;SDS011;59266;52.608;13.260;2024-02-28T00:02:01;35.30;;;10.63;;
71462;SDS011;59266;52.608;13.260;2024-02-28T00:04:27;35.45;;;10.82;;
71462;SDS011;59266;52.608;13.260;2024-02-28T00:06:54;35.42;;;11.00;;
71462;SDS011;59266;52.608;13.260;2024-02-28T00:09:20;35.60;;;10.05;;
71462;SDS011;59266;52.608;13.260;2024-02-28T00:11:47;31.98;;;9.55;;
71462;SDS011;59266;52.608;13.260;2024-02-28T00:14:14;44.90;;;10.60;;
71462;SDS011;59266;52.608;13.260;2024-02-28T00:16:43;35.58;;;10.52;;
71462;SDS011;59266;52.608;13.260;2024-02-28T00:19:11;30.88;;;10.68;;
71462;SDS011;59266;52.608;13.260;2024-02-28T00:21:39;33.38;;;11.13;;
71462;SDS011;59266;52.608;13.260;2024-02-28T00:24:07;48.70;;;10.27;;
71462;SDS011;59266;52.608;13.260;2024-02-28T00:26:33;31.50;;;9.55;;
71462;SDS011;59266;52.608;13.260;2024-02-28T00:29:00;37.60;;;10.80;;
71462;SDS011;59266;52.608;13.260;2024-02-28T00:31:27;39.10;;;10.88;;
71462;SDS011;59266;52.608;13.260;2024-02-28T00:33:53;43.05;;;11.57;;
71462;SDS011;59266;52.608;13.260;2024-02-28T00:36:20;38.92;;;10.90;;
71462;SDS011;59266;52.608;13.260;2024-02-28T00:38:47;39.00;;;10.23;;
71462;SDS011;59266;52.608;13.260;2024-02-28T00:41:13;36.53;;;10.63;;
71462;SDS011;59266;52.608;13.260;2024-02-28T00:43:40;34.42;;;10.13;;
71462;SDS011;59266;52.608;13.260;2024-02-28T00:46:06;41.35;;;10.25;;
71462;SDS011;59266;52.608;13.260;2024-02-28T00:48:37;38.45;;;9.68;;
71462;SDS011;59266;52.608;13.260;2024-02-28T00:53:58;29.88;;;9.32;;
71462;SDS011;59266;52.608;13.260;2024-02-28T00:56:25;39.70;;;10.23;;
71462;SDS011;59266;52.608;13.260;2024-02-28T00:58:53;35.25;;;10.13;;
71462;SDS011;59266;52.608;13.260;2024-02-28T01:01:19;36.67;;;10.02;;
71462;SDS011;59266;52.608;13.260;2024-02-28T01:03:46;33.92;;;10.10;;
71462;SDS011;59266;52.608;13.260;2024-02-28T01:06:13;34.45;;;9.18;;
71462;SDS011;59266;52.608;13.260;2024-02-28T01:08:41;34.80;;;9.85;;
71462;SDS011;59266;52.608;13.260;2024-02-28T01:11:07;30.55;;;9.18;;
71462;SDS011;59266;52.608;13.260;2024-02-28T01:13:34;30.83;;;9.10;;
71462;SDS011;59266;52.608;13.260;2024-02-28T01:16:01;28.05;;;8.63;;
71462;SDS011;59266;52.608;13.260;2024-02-28T01:18:27;33.85;;;9.70;;
71462;SDS011;59266;52.608;13.260;2024-02-28T01:24:20;29.50;;;8.30;;
71462;SDS011;59266;52.608;13.260;2024-02-28T01:26:47;27.20;;;8.77;;
71462;SDS011;59266;52.608;13.260;2024-02-28T01:29:14;26.60;;;8.75;;
71462;SDS011;59266;52.608;13.260;2024-02-28T01:31:40;29.05;;;8.50;;
71462;SDS011;59266;52.608;13.260;2024-02-28T01:34:07;26.95;;;8.27;;
71462;SDS011;59266;52.608;13.260;2024-02-28T01:36:34;24.27;;;7.25;;
71462;SDS011;59266;52.608;13.260;2024-02-28T01:39:01;26.95;;;7.85;;
71462;SDS011;59266;52.608;13.260;2024-02-28T01:41:27;26.15;;;7.30;;
71462;SDS011;59266;52.608;13.260;2024-02-28T01:43:54;23.55;;;7.38;;
71462;SDS011;59266;52.608;13.260;2024-02-28T01:46:24;23.25;;;7.20;;
71462;SDS011;59266;52.608;13.260;2024-02-28T01:48:53;21.80;;;6.90;;
71462;SDS011;59266;52.608;13.260;2024-02-28T01:51:22;24.00;;;7.43;;
71462;SDS011;59266;52.608;13.260;2024-02-28T01:53:50;23.38;;;7.22;;
71462;SDS011;59266;52.608;13.260;2024-02-28T01:56:17;18.92;;;6.35;;
71462;SDS011;59266;52.608;13.260;2024-02-28T01:58:46;23.73;;;6.85;;
71462;SDS011;59266;52.608;13.260;2024-02-28T02:01:13;20.35;;;6.75;;
71462;SDS011;59266;52.608;13.260;2024-02-28T02:03:41;21.13;;;6.32;;
71462;SDS011;59266;52.608;13.260;2024-02-28T02:06:09;17.77;;;5.60;;
71462;SDS011;59266;52.608;13.260;2024-02-28T02:08:36;22.83;;;6.40;;
71462;SDS011;59266;52.608;13.260;2024-02-28T02:11:03;18.95;;;5.40;;
71462;SDS011;59266;52.608;13.260;2024-02-28T02:13:30;18.08;;;6.45;;
71462;SDS011;59266;52.608;13.260;2024-02-28T02:15:57;22.63;;;6.60;;
71462;SDS011;59266;52.608;13.260;2024-02-28T02:18:23;18.67;;;6.03;;
71462;SDS011;59266;52.608;13.260;2024-02-28T02:20:53;15.73;;;5.40;;
71462;SDS011;59266;52.608;13.260;2024-02-28T02:23:25;19.98;;;5.90;;
71462;SDS011;59266;52.608;13.260;2024-02-28T02:25:51;17.40;;;5.55;;
71462;SDS011;59266;52.608;13.260;2024-02-28T02:28:18;19.92;;;5.97;;
71462;SDS011;59266;52.608;13.260;2024-02-28T02:30:45;22.52;;;6.15;;
71462;SDS011;59266;52.608;13.260;2024-02-28T02:33:13;18.92;;;6.20;;
71462;SDS011;59266;52.608;13.260;2024-02-28T02:35:40;18.00;;;5.68;;
71462;SDS011;59266;52.608;13.260;2024-02-28T02:38:06;23.88;;;6.22;;
71462;SDS011;59266;52.608;13.260;2024-02-28T02:40:33;17.65;;;5.68;;
71462;SDS011;59266;52.608;13.260;2024-02-28T02:43:00;17.20;;;5.10;;
71462;SDS011;59266;52.608;13.260;2024-02-28T02:45:26;20.17;;;5.65;;
71462;SDS011;59266;52.608;13.260;2024-02-28T02:47:53;18.45;;;5.60;;
71462;SDS011;59266;52.608;13.260;2024-02-28T02:50:19;17.02;;;5.57;;
71462;SDS011;59266;52.608;13.260;2024-02-28T02:52:46;16.33;;;5.60;;
71462;SDS011;59266;52.608;13.260;2024-02-28T02:55:13;17.25;;;5.80;;
71462;SDS011;59266;52.608;13.260;2024-02-28T02:57:39;15.85;;;4.90;;
71462;SDS011;59266;52.608;13.260;2024-02-28T03:00:09;14.40;;;5.07;;
71462;SDS011;59266;52.608;13.260;2024-02-28T03:02:36;13.85;;;4.68;;
71462;SDS011;59266;52.608;13.260;2024-02-28T03:05:06;15.35;;;4.78;;
71462;SDS011;59266;52.608;13.260;2024-02-28T03:07:33;15.95;;;4.32;;
71462;SDS011;59266;52.608;13.260;2024-02-28T03:10:00;14.93;;;4.85;;
71462;SDS011;59266;52.608;13.260;2024-02-28T03:12:26;14.57;;;4.50;;
71462;SDS011;59266;52.608;13.260;2024-02-28T03:14:53;14.38;;;4.80;;
71462;SDS011;59266;52.608;13.260;2024-02-28T03:17:19;16.08;;;4.65;;
71462;SDS011;59266;52.608;13.260;2024-02-28T03:19:46;14.43;;;4.32;;
71462;SDS011;59266;52.608;13.260;2024-02-28T03:22:13;14.30;;;4.63;;
71462;SDS011;59266;52.608;13.260;2024-02-28T03:24:40;12.98;;;4.45;;
71462;SDS011;59266;52.608;13.260;2024-02-28T03:27:06;12.30;;;4.25;;
71462;SDS011;59266;52.608;13.260;2024-02-28T03:29:33;15.48;;;4.50;;
71462;SDS011;59266;52.608;13.260;2024-02-28T03:31:59;14.57;;;4.80;;
71462;SDS011;59266;52.608;13.260;2024-02-28T03:34:26;12.63;;;4.15;;
71462;SDS011;59266;52.608;13.260;2024-02-28T03:36:53;16.65;;;5.28;;
71462;SDS011;59266;52.608;13.260;2024-02-28T03:39:19;15.27;;;4.97;;
71462;SDS011;59266;52.608;13.260;2024-02-28T03:41:46;13.73;;;4.50;;
71462;SDS011;59266;52.608;13.260;2024-02-28T03:44:13;13.65;;;4.70;;
71462;SDS011;59266;52.608;13.260;2024-02-28T03:46:39;15.40;;;4.63;;
71462;SDS011;59266;52.608;13.260;2024-02-28T03:49:06;15.60;;;4.78;;
71462;SDS011;59266;52.608;13.260;2024-02-28T03:51:32;14.45;;;4.25;;
71462;SDS011;59266;52.608;13.260;2024-02-28T03:54:05;16.75;;;5.05;;
71462;SDS011;59266;52.608;13.260;2024-02-28T03:56:32;19.20;;;4.82;;
71462;SDS011;59266;52.608;13.260;2024-02-28T03:58:59;16.80;;;5.40;;
71462;SDS011;59266;52.608;13.260;2024-02-28T04:01:25;15.45;;;5.03;;
71462;SDS011;59266;52.608;13.260;2024-02-28T04:03:52;18.25;;;5.35;;
71462;SDS011;59266;52.608;13.260;2024-02-28T04:06:18;17.13;;;4.88;;
71462;SDS011;59266;52.608;13.260;2024-02-28T04:08:45;22.40;;;6.15;;
71462;SDS011;59266;52.608;13.260;2024-02-28T04:11:12;16.10;;;5.72;;
71462;SDS011;59266;52.608;13.260;2024-02-28T04:13:38;19.88;;;5.60;;
71462;SDS011;59266;52.608;13.260;2024-02-28T04:16:07;19.33;;;5.40;;
71462;SDS011;59266;52.608;13.260;2024-02-28T04:18:34;18.48;;;6.00;;
71462;SDS011;59266;52.608;13.260;2024-02-28T04:21:07;21.25;;;5.60;;
71462;SDS011;59266;52.608;13.260;2024-02-28T04:23:33;19.05;;;6.43;;
71462;SDS011;59266;52.608;13.260;2024-02-28T04:26:00;16.10;;;5.15;;
71462;SDS011;59266;52.608;13.260;2024-02-28T04:28:28;16.20;;;5.47;;
71462;SDS011;59266;52.608;13.260;2024-02-28T04:30:55;14.05;;;5.07;;
71462;SDS011;59266;52.608;13.260;2024-02-28T04:33:21;15.35;;;5.55;;
71462;SDS011;59266;52.608;13.260;2024-02-28T04:35:49;17.83;;;5.47;;
71462;SDS011;59266;52.608;13.260;2024-02-28T04:38:15;14.10;;;4.47;;
71462;SDS011;59266;52.608;13.260;2024-02-28T04:40:42;19.73;;;5.10;;
71462;SDS011;59266;52.608;13.260;2024-02-28T04:43:09;14.75;;;4.63;;
71462;SDS011;59266;52.608;13.260;2024-02-28T04:45:35;14.10;;;4.50;;
71462;SDS011;59266;52.608;13.260;2024-02-28T04:48:02;10.10;;;4.38;;
71462;SDS011;59266;52.608;13.260;2024-02-28T04:50:29;15.65;;;4.07;;
71462;SDS011;59266;52.608;13.260;2024-02-28T04:52:55;13.48;;;4.35;;
71462;SDS011;59266;52.608;13.260;2024-02-28T04:55:22;12.93;;;4.40;;
71462;SDS011;59266;52.608;13.260;2024-02-28T04:57:48;12.13;;;3.75;;
71462;SDS011;59266;52.608;13.260;2024-02-28T05:00:15;12.57;;;4.07;;
71462;SDS011;59266;52.608;13.260;2024-02-28T05:02:42;11.77;;;4.28;;
71462;SDS011;59266;52.608;13.260;2024-02-28T05:05:09;10.82;;;3.63;;
71462;SDS011;59266;52.608;13.260;2024-02-28T05:07:35;11.25;;;3.90;;
71462;SDS011;59266;52.608;13.260;2024-02-28T05:10:02;12.13;;;3.65;;
71462;SDS011;59266;52.608;13.260;2024-02-28T05:12:29;11.13;;;3.58;;
71462;SDS011;59266;52.608;13.260;2024-02-28T05:14:55;12.07;;;3.22;;
71462;SDS011;59266;52.608;13.260;2024-02-28T05:17:22;10.50;;;3.53;;
71462;SDS011;59266;52.608;13.260;2024-02-28T05:19:48;9.88;;;3.67;;
71462;SDS011;59266;52.608;13.260;2024-02-28T05:22:15;11.50;;;3.53;;
71462;SDS011;59266;52.608;13.260;2024-02-28T05:24:42;9.57;;;3.13;;
71462;SDS011;59266;52.608;13.260;2024-02-28T05:27:11;10.30;;;3.53;;
71462;SDS011;59266;52.608;13.260;2024-02-28T05:29:38;11.80;;;3.80;;
71462;SDS011;59266;52.608;13.260;2024-02-28T05:32:04;9.35;;;2.80;;
71462;SDS011;59266;52.608;13.260;2024-02-28T05:34:32;9.95;;;3.50;;
71462;SDS011;59266;52.608;13.260;2024-02-28T05:36:58;10.65;;;3.67;;
71462;SDS011;59266;52.608;13.260;2024-02-28T05:39:27;13.52;;;4.47;;
71462;SDS011;59266;52.608;13.260;2024-02-28T05:41:55;11.18;;;4.05;;
71462;SDS011;59266;52.608;13.260;2024-02-28T05:44:22;12.57;;;4.35;;
71462;SDS011;59266;52.608;13.260;2024-02-28T05:46:50;14.10;;;4.20;;
71462;SDS011;59266;52.608;13.260;2024-02-28T05:49:17;13.68;;;4.88;;
71462;SDS011;59266;52.608;13.260;2024-02-28T05:51:44;16.33;;;5.03;;
71462;SDS011;59266;52.608;13.260;2024-02-28T05:54:10;14.32;;;4.95;;
71462;SDS011;59266;52.608;13.260;2024-02-28T05:56:37;18.88;;;6.53;;
71462;SDS011;59266;52.608;13.260;2024-02-28T05:59:03;14.63;;;5.00;;
71462;SDS011;59266;52.608;13.260;2024-02-28T06:01:30;14.88;;;5.55;;
71462;SDS011;59266;52.608;13.260;2024-02-28T06:03:56;14.80;;;5.63;;
71462;SDS011;59266;52.608;13.260;2024-02-28T06:06:23;17.27;;;5.60;;
71462;SDS011;59266;52.608;13.260;2024-02-28T06:08:50;16.98;;;5.50;;
71462;SDS011;59266;52.608;13.260;2024-02-28T06:11:16;16.23;;;5.63;;
71462;SDS011;59266;52.608;13.260;2024-02-28T06:13:43;16.80;;;5.53;;
71462;SDS011;59266;52.608;13.260;2024-02-28T06:16:15;15.20;;;5.72;;
71462;SDS011;59266;52.608;13.260;2024-02-28T06:18:44;14.93;;;5.18;;
71462;SDS011;59266;52.608;13.260;2024-02-28T06:21:12;13.48;;;5.28;;
71462;SDS011;59266;52.608;13.260;2024-02-28T06:23:40;16.33;;;5.53;;
71462;SDS011;59266;52.608;13.260;2024-02-28T06:26:07;15.15;;;5.53;;
71462;SDS011;59266;52.608;13.260;2024-02-28T06:28:41;15.18;;;5.30;;
71462;SDS011;59266;52.608;13.260;2024-02-28T06:31:13;13.98;;;5.22;;
71462;SDS011;59266;52.608;13.260;2024-02-28T06:33:43;13.93;;;4.75;;
71462;SDS011;59266;52.608;13.260;2024-02-28T06:36:10;15.75;;;4.65;;
71462;SDS011;59266;52.608;13.260;2024-02-28T06:38:37;15.25;;;5.30;;
71462;SDS011;59266;52.608;13.260;2024-02-28T06:41:04;18.98;;;5.43;;
71462;SDS011;59266;52.608;13.260;2024-02-28T06:43:34;15.55;;;5.15;;
71462;SDS011;59266;52.608;13.260;2024-02-28T06:46:04;17.30;;;5.20;;
71462;SDS011;59266;52.608;13.260;2024-02-28T06:48:31;16.55;;;5.07;;
71462;SDS011;59266;52.608;13.260;2024-02-28T06:51:00;17.00;;;6.43;;
71462;SDS011;59266;52.608;13.260;2024-02-28T06:53:27;15.63;;;5.22;;
71462;SDS011;59266;52.608;13.260;2024-02-28T06:55:54;16.40;;;6.30;;
71462;SDS011;59266;52.608;13.260;2024-02-28T06:58:20;14.18;;;5.78;;
71462;SDS011;59266;52.608;13.260;2024-02-28T07:00:47;12.73;;;4.68;;
71462;SDS011;59266;52.608;13.260;2024-02-28T07:03:19;13.90;;;4.75;;
71462;SDS011;59266;52.608;13.260;2024-02-28T07:05:46;13.38;;;4.97;;
71462;SDS011;59266;52.608;13.260;2024-02-28T07:08:13;13.15;;;4.70;;
71462;SDS011;59266;52.608;13.260;2024-02-28T07:10:39;12.73;;;4.32;;
71462;SDS011;59266;52.608;13.260;2024-02-28T07:13:10;12.43;;;3.88;;
71462;SDS011;59266;52.608;13.260;2024-02-28T07:15:37;12.30;;;3.85;;
71462;SDS011;59266;52.608;13.260;2024-02-28T07:18:05;13.13;;;4.60;;
71462;SDS011;59266;52.608;13.260;2024-02-28T07:20:32;10.25;;;3.47;;
71462;SDS011;59266;52.608;13.260;2024-02-28T07:22:58;13.40;;;4.38;;
71462;SDS011;59266;52.608;13.260;2024-02-28T07:25:25;14.30;;;4.05;;
71462;SDS011;59266;52.608;13.260;2024-02-28T07:27:52;11.98;;;4.38;;
71462;SDS011;59266;52.608;13.260;2024-02-28T07:30:18;11.65;;;4.05;;
71462;SDS011;59266;52.608;13.260;2024-02-28T07:32:45;12.00;;;3.70;;
71462;SDS011;59266;52.608;13.260;2024-02-28T07:35:12;14.77;;;4.35;;
71462;SDS011;59266;52.608;13.260;2024-02-28T07:37:38;9.80;;;3.65;;
71462;SDS011;59266;52.608;13.260;2024-02-28T07:40:05;13.30;;;4.53;;
71462;SDS011;59266;52.608;13.260;2024-02-28T07:42:34;14.30;;;4.18;;
71462;SDS011;59266;52.608;13.260;2024-02-28T07:45:01;11.20;;;3.63;;
71462;SDS011;59266;52.608;13.260;2024-02-28T07:47:27;10.25;;;3.38;;
71462;SDS011;59266;52.608;13.260;2024-02-28T07:49:54;11.32;;;3.97;;
71462;SDS011;59266;52.608;13.260;2024-02-28T07:52:21;11.57;;;3.65;;
71462;SDS011;59266;52.608;13.260;2024-02-28T07:54:48;10.38;;;3.65;;
71462;SDS011;59266;52.608;13.260;2024-02-28T07:57:15;10.07;;;3.47;;
71462;SDS011;59266;52.608;13.260;2024-02-28T07:59:42;11.57;;;3.80;;
71462;SDS011;59266;52.608;13.260;2024-02-28T08:02:09;11.07;;;4.30;;
71462;SDS011;59266;52.608;13.260;2024-02-28T08:04:38;13.65;;;5.07;;
71462;SDS011;59266;52.608;13.260;2024-02-28T08:07:05;13.02;;;4.45;;
71462;SDS011;59266;52.608;13.260;2024-02-28T08:09:32;14.85;;;5.72;;
71462;SDS011;59266;52.608;13.260;2024-02-28T08:11:59;12.25;;;4.70;;
71462;SDS011;59266;52.608;13.260;2024-02-28T08:14:26;13.68;;;4.72;;
71462;SDS011;59266;52.608;13.260;2024-02-28T08:16:53;15.48;;;5.40;;
71462;SDS011;59266;52.608;13.260;2024-02-28T08:19:20;15.95;;;4.88;;
71462;SDS011;59266;52.608;13.260;2024-02-28T08:21:47;17.02;;;5.63;;
71462;SDS011;59266;52.608;13.260;2024-02-28T08:24:14;16.85;;;5.35;;
71462;SDS011;59266;52.608;13.260;2024-02-28T08:26:41;15.93;;;5.22;;
71462;SDS011;59266;52.608;13.260;2024-02-28T08:29:08;15.77;;;5.22;;
71462;SDS011;59266;52.608;13.260;2024-02-28T08:31:39;15.32;;;5.13;;
71462;SDS011;59266;52.608;13.260;2024-02-28T08:34:06;14.13;;;4.88;;
71462;SDS011;59266;52.608;13.260;2024-02-28T08:36:33;14.02;;;5.50;;
71462;SDS011;59266;52.608;13.260;2024-02-28T08:39:00;15.13;;;4.85;;
71462;SDS011;59266;52.608;13.260;2024-02-28T08:41:26;14.68;;;5.13;;
71462;SDS011;59266;52.608;13.260;2024-02-28T08:43:53;14.80;;;5.28;;
71462;SDS011;59266;52.608;13.260;2024-02-28T08:46:19;16.98;;;5.65;;
71462;SDS011;59266;52.608;13.260;2024-02-28T08:48:46;14.30;;;5.43;;
71462;SDS011;59266;52.608;13.260;2024-02-28T08:51:19;15.25;;;5.53;;
71462;SDS011;59266;52.608;13.260;2024-02-28T08:53:45;15.00;;;5.10;;
71462;SDS011;59266;52.608;13.260;2024-02-28T08:56:12;16.02;;;6.03;;
71462;SDS011;59266;52.608;13.260;2024-02-28T08:58:39;15.27;;;5.93;;
71462;SDS011;59266;52.608;13.260;2024-02-28T09:01:05;17.65;;;5.97;;
71462;SDS011;59266;52.608;13.260;2024-02-28T09:03:32;17.58;;;5.55;;
71462;SDS011;59266;52.608;13.260;2024-02-28T09:05:59;17.85;;;6.53;;
71462;SDS011;59266;52.608;13.260;2024-02-28T09:08:25;17.13;;;5.43;;
71462;SDS011;59266;52.608;13.260;2024-02-28T09:10:52;16.30;;;5.88;;
71462;SDS011;59266;52.608;13.260;2024-02-28T09:13:19;19.50;;;6.68;;
71462;SDS011;59266;52.608;13.260;2024-02-28T09:15:46;19.48;;;6.85;;
71462;SDS011;59266;52.608;13.260;2024-02-28T09:18:13;18.40;;;6.60;;
71462;SDS011;59266;52.608;13.260;2024-02-28T09:20:39;17.85;;;5.40;;
71462;SDS011;59266;52.608;13.260;2024-02-28T09:23:06;19.13;;;5.97;;
71462;SDS011;59266;52.608;13.260;2024-02-28T09:25:33;19.50;;;6.97;;
71462;SDS011;59266;52.608;13.260;2024-02-28T09:28:02;15.35;;;5.47;;
71462;SDS011;59266;52.608;13.260;2024-02-28T09:30:30;18.38;;;5.78;;
71462;SDS011;59266;52.608;13.260;2024-02-28T09:33:11;17.70;;;6.00;;
71462;SDS011;59266;52.608;13.260;2024-02-28T09:35:38;18.73;;;6.88;;
71462;SDS011;59266;52.608;13.260;2024-02-28T09:38:05;19.45;;;6.28;;
71462;SDS011;59266;52.608;13.260;2024-02-28T09:40:31;16.08;;;5.93;;
71462;SDS011;59266;52.608;13.260;2024-02-28T09:43:02;19.85;;;7.05;;
71462;SDS011;59266;52.608;13.260;2024-02-28T09:45:30;20.90;;;7.35;;
71462;SDS011;59266;52.608;13.260;2024-02-28T09:47:58;22.85;;;7.22;;
71462;SDS011;59266;52.608;13.260;2024-02-28T09:50:27;24.00;;;8.43;;
71462;SDS011;59266;52.608;13.260;2024-02-28T09:52:57;21.42;;;7.40;;
71462;SDS011;59266;52.608;13.260;2024-02-28T09:55:35;22.27;;;7.57;;
71462;SDS011;59266;52.608;13.260;2024-02-28T09:58:02;21.40;;;7.32;;
71462;SDS011;59266;52.608;13.260;2024-02-28T10:00:30;20.48;;;8.02;;
71462;SDS011;59266;52.608;13.260;2024-02-28T10:02:57;20.25;;;7.20;;
71462;SDS011;59266;52.608;13.260;2024-02-28T10:05:24;21.35;;;7.18;;
71462;SDS011;59266;52.608;13.260;2024-02-28T10:07:53;20.02;;;7.18;;
71462;SDS011;59266;52.608;13.260;2024-02-28T10:10:20;23.13;;;7.57;;
71462;SDS011;59266;52.608;13.260;2024-02-28T10:12:48;24.42;;;7.72;;
71462;SDS011;59266;52.608;13.260;2024-02-28T10:15:18;21.73;;;7.65;;
71462;SDS011;59266;52.608;13.260;2024-02-28T10:17:44;23.08;;;7.85;;
71462;SDS011;59266;52.608;13.260;2024-02-28T10:20:20;26.45;;;8.30;;
71462;SDS011;59266;52.608;13.260;2024-02-28T10:22:47;21.95;;;8.02;;
71462;SDS011;59266;52.608;13.260;2024-02-28T10:25:13;21.33;;;7.57;;
71462;SDS011;59266;52.608;13.260;2024-02-28T10:27:40;21.20;;;7.45;;
71462;SDS011;59266;52.608;13.260;2024-02-28T10:30:07;19.55;;;6.97;;
71462;SDS011;59266;52.608;13.260;2024-02-28T10:32:34;20.60;;;7.43;;
71462;SDS011;59266;52.608;13.260;2024-02-28T10:35:03;23.77;;;8.45;;
71462;SDS011;59266;52.608;13.260;2024-02-28T10:37:30;19.85;;;7.43;;
71462;SDS011;59266;52.608;13.260;2024-02-28T10:39:59;22.40;;;8.52;;
71462;SDS011;59266;52.608;13.260;2024-02-28T10:42:27;24.88;;;8.93;;
71462;SDS011;59266;52.608;13.260;2024-02-28T10:44:57;22.55;;;8.60;;
71462;SDS011;59266;52.608;13.260;2024-02-28T10:47:45;22.98;;;8.07;;
71462;SDS011;59266;52.608;13.260;2024-02-28T10:50:13;18.45;;;6.82;;
71462;SDS011;59266;52.608;13.260;2024-02-28T10:52:43;20.65;;;8.15;;
71462;SDS011;59266;52.608;13.260;2024-02-28T10:55:13;20.73;;;7.65;;
71462;SDS011;59266;52.608;13.260;2024-02-28T10:57:40;21.38;;;7.10;;
71462;SDS011;59266;52.608;13.260;2024-02-28T11:00:07;17.05;;;5.97;;
71462;SDS011;59266;52.608;13.260;2024-02-28T11:02:34;20.52;;;6.93;;
71462;SDS011;59266;52.608;13.260;2024-02-28T11:05:01;18.17;;;6.75;;
71462;SDS011;59266;52.608;13.260;2024-02-28T11:07:30;18.27;;;7.30;;
71462;SDS011;59266;52.608;13.260;2024-02-28T11:09:57;22.45;;;7.13;;
71462;SDS011;59266;52.608;13.260;2024-02-28T11:12:27;18.60;;;6.63;;
71462;SDS011;59266;52.608;13.260;2024-02-28T11:14:58;20.65;;;6.38;;
71462;SDS011;59266;52.608;13.260;2024-02-28T11:17:29;18.98;;;6.97;;
71462;SDS011;59266;52.608;13.260;2024-02-28T11:19:56;17.48;;;6.20;;
71462;SDS011;59266;52.608;13.260;2024-02-28T11:22:22;21.00;;;6.40;;
71462;SDS011;59266;52.608;13.260;2024-02-28T11:24:53;18.33;;;6.57;;
71462;SDS011;59266;52.608;13.260;2024-02-28T11:27:20;17.77;;;6.13;;
71462;SDS011;59266;52.608;13.260;2024-02-28T11:29:47;18.00;;;6.40;;
71462;SDS011;59266;52.608;13.260;2024-02-28T11:32:16;16.30;;;6.22;;
71462;SDS011;59266;52.608;13.260;2024-02-28T11:34:42;15.68;;;5.85;;
71462;SDS011;59266;52.608;13.260;2024-02-28T11:37:10;17.77;;;6.50;;
71462;SDS011;59266;52.608;13.260;2024-02-28T11:39:36;20.20;;;7.45;;
71462;SDS011;59266;52.608;13.260;2024-02-28T11:42:10;17.80;;;6.82;;
71462;SDS011;59266;52.608;13.260;2024-02-28T11:44:41;17.13;;;6.78;;
71462;SDS011;59266;52.608;13.260;2024-02-28T11:47:09;21.30;;;8.57;;
71462;SDS011;59266;52.608;13.260;2024-02-28T11:49:37;16.20;;;6.00;;
71462;SDS011;59266;52.608;13.260;2024-02-28T11:52:04;17.05;;;6.35;;
71462;SDS011;59266;52.608;13.260;2024-02-28T11:54:31;14.57;;;5.65;;
71462;SDS011;59266;52.608;13.260;2024-02-28T11:56:57;15.73;;;6.30;;
71462;SDS011;59266;52.608;13.260;2024-02-28T11:59:25;14.63;;;5.00;;
71462;SDS011;59266;52.608;13.260;2024-02-28T12:01:52;16.92;;;5.55;;
71462;SDS011;59266;52.608;13.260;2024-02-28T12:04:19;13.18;;;4.75;;
71462;SDS011;59266;52.608;13.260;2024-02-28T12:06:45;16.42;;;5.63;;
71462;SDS011;59266;52.608;13.260;2024-02-28T12:09:12;20.42;;;7.53;;
71462;SDS011;59266;52.608;13.260;2024-02-28T12:11:50;19.25;;;7.15;;
71462;SDS011;59266;52.608;13.260;2024-02-28T12:14:16;19.70;;;7.43;;
71462;SDS011;59266;52.608;13.260;2024-02-28T12:16:43;18.88;;;7.43;;
71462;SDS011;59266;52.608;13.260;2024-02-28T12:19:11;14.80;;;5.60;;
71462;SDS011;59266;52.608;13.260;2024-02-28T12:21:38;15.43;;;5.35;;
71462;SDS011;59266;52.608;13.260;2024-02-28T12:24:09;14.63;;;5.10;;
71462;SDS011;59266;52.608;13.260;2024-02-28T12:26:37;15.43;;;5.63;;
71462;SDS011;59266;52.608;13.260;2024-02-28T12:29:04;14.32;;;4.93;;
71462;SDS011;59266;52.608;13.260;2024-02-28T12:31:31;15.85;;;5.85;;
71462;SDS011;59266;52.608;13.260;2024-02-28T12:33:58;15.02;;;5.15;;
71462;SDS011;59266;52.608;13.260;2024-02-28T12:36:25;17.17;;;6.32;;
71462;SDS011;59266;52.608;13.260;2024-02-28T12:38:52;16.00;;;6.45;;
71462;SDS011;59266;52.608;13.260;2024-02-28T12:41:19;14.20;;;5.55;;
71462;SDS011;59266;52.608;13.260;2024-02-28T12:43:46;18.73;;;7.18;;
71462;SDS011;59266;52.608;13.260;2024-02-28T12:46:12;16.40;;;6.03;;
71462;SDS011;59266;52.608;13.260;2024-02-28T12:48:39;14.48;;;5.10;;
71462;SDS011;59266;52.608;13.260;2024-02-28T12:51:08;16.13;;;6.60;;
71462;SDS011;59266;52.608;13.260;2024-02-28T12:53:36;14.40;;;5.53;;
71462;SDS011;59266;52.608;13.260;2024-02-28T12:56:03;14.88;;;4.97;;
71462;SDS011;59266;52.608;13.260;2024-02-28T12:58:29;13.40;;;4.88;;
71462;SDS011;59266;52.608;13.260;2024-02-28T13:00:56;15.77;;;5.15;;
71462;SDS011;59266;52.608;13.260;2024-02-28T13:03:23;15.20;;;5.57;;
71462;SDS011;59266;52.608;13.260;2024-02-28T13:05:49;14.68;;;5.78;;
71462;SDS011;59266;52.608;13.260;2024-02-28T13:08:16;16.20;;;5.30;;
71462;SDS011;59266;52.608;13.260;2024-02-28T13:10:43;15.05;;;6.00;;
71462;SDS011;59266;52.608;13.260;2024-02-28T13:13:09;12.55;;;5.75;;
71462;SDS011;59266;52.608;13.260;2024-02-28T13:15:36;13.25;;;4.97;;
71462;SDS011;59266;52.608;13.260;2024-02-28T13:18:03;15.75;;;6.15;;
71462;SDS011;59266;52.608;13.260;2024-02-28T13:20:37;15.30;;;5.40;;
71462;SDS011;59266;52.608;13.260;2024-02-28T13:23:04;14.25;;;5.07;;
71462;SDS011;59266;52.608;13.260;2024-02-28T13:25:31;12.63;;;4.97;;
71462;SDS011;59266;52.608;13.260;2024-02-28T13:27:57;16.00;;;5.60;;
71462;SDS011;59266;52.608;13.260;2024-02-28T13:30:24;14.60;;;5.35;;
71462;SDS011;59266;52.608;13.260;2024-02-28T13:32:51;16.67;;;4.93;;
71462;SDS011;59266;52.608;13.260;2024-02-28T13:35:18;18.45;;;5.82;;
71462;SDS011;59266;52.608;13.260;2024-02-28T13:37:45;15.98;;;5.88;;
71462;SDS011;59266;52.608;13.260;2024-02-28T13:40:11;14.88;;;5.60;;
71462;SDS011;59266;52.608;13.260;2024-02-28T13:42:38;14.82;;;5.38;;
71462;SDS011;59266;52.608;13.260;2024-02-28T13:45:05;13.10;;;5.05;;
71462;SDS011;59266;52.608;13.260;2024-02-28T13:47:33;14.90;;;5.75;;
71462;SDS011;59266;52.608;13.260;2024-02-28T13:50:01;13.18;;;5.35;;
71462;SDS011;59266;52.608;13.260;2024-02-28T13:52:28;15.52;;;5.78;;
71462;SDS011;59266;52.608;13.260;2024-02-28T13:54:55;14.27;;;5.47;;
71462;SDS011;59266;52.608;13.260;2024-02-28T13:57:22;14.75;;;5.18;;
71462;SDS011;59266;52.608;13.260;2024-02-28T13:59:48;13.70;;;5.50;;
71462;SDS011;59266;52.608;13.260;2024-02-28T14:02:17;15.52;;;5.47;;
71462;SDS011;59266;52.608;13.260;2024-02-28T14:04:44;14.20;;;5.43;;
71462;SDS011;59266;52.608;13.260;2024-02-28T14:07:15;13.50;;;5.25;;
71462;SDS011;59266;52.608;13.260;2024-02-28T14:09:42;12.93;;;5.40;;
71462;SDS011;59266;52.608;13.260;2024-02-28T14:12:11;14.63;;;5.43;;
71462;SDS011;59266;52.608;13.260;2024-02-28T14:14:38;14.00;;;5.72;;
71462;SDS011;59266;52.608;13.260;2024-02-28T14:17:05;14.48;;;5.25;;
71462;SDS011;59266;52.608;13.260;2024-02-28T14:19:32;12.93;;;4.90;;
71462;SDS011;59266;52.608;13.260;2024-02-28T14:22:01;12.85;;;4.80;;
71462;SDS011;59266;52.608;13.260;2024-02-28T14:24:29;13.77;;;5.45;;
71462;SDS011;59266;52.608;13.260;2024-02-28T14:26:55;13.10;;;5.25;;
71462;SDS011;59266;52.608;13.260;2024-02-28T14:29:22;13.25;;;5.47;;